createdAt,value
2018-10-03T00:02:21.306Z,99.90
2018-10-03T00:04:49.601Z,99.90
2018-10-03T00:07:18.474Z,99.90
2018-10-03T00:09:47.027Z,99.90
2018-10-03T00:12:15.958Z,99.90
2018-10-03T00:14:44.215Z,99.90
2018-10-03T00:17:12.897Z,99.90
2018-10-03T00:19:41.198Z,99.90
2018-10-03T00:22:09.476Z,99.90
2018-10-03T00:24:37.775Z,99.90
2018-10-03T00:27:06.415Z,99.90
2018-10-03T00:29:34.730Z,99.90
2018-10-03T00:32:03.525Z,99.90
2018-10-03T00:34:32.494Z,99.90
2018-10-03T00:37:00.786Z,99.90
2018-10-03T00:39:29.763Z,99.90
2018-10-03T00:41:58.017Z,99.90
2018-10-03T00:47:09.001Z,99.90
2018-10-03T00:49:37.334Z,99.90
2018-10-03T00:52:06.190Z,99.90
2018-10-03T00:54:34.471Z,99.90
2018-10-03T00:57:02.746Z,99.90
2018-10-03T00:59:31.026Z,99.90
2018-10-03T01:02:00.011Z,99.90
2018-10-03T01:04:28.269Z,99.90
2018-10-03T01:06:56.533Z,99.90
2018-10-03T01:09:25.149Z,99.90
2018-10-03T01:11:54.366Z,99.90
2018-10-03T01:14:22.639Z,99.90
2018-10-03T01:16:51.390Z,99.90
2018-10-03T01:19:20.523Z,99.90
2018-10-03T01:21:48.891Z,99.90
2018-10-03T01:24:17.702Z,99.90
2018-10-03T01:26:46.495Z,99.90
2018-10-03T01:29:15.518Z,99.90
2018-10-03T01:31:44.425Z,99.90
2018-10-03T01:34:12.722Z,99.90
2018-10-03T01:36:40.995Z,99.90
2018-10-03T01:39:10.138Z,99.90
2018-10-03T01:41:38.897Z,99.90
2018-10-03T01:44:07.402Z,99.90
2018-10-03T01:46:35.649Z,99.90
2018-10-03T01:49:04.881Z,99.90
2018-10-03T01:51:33.699Z,99.90
2018-10-03T01:54:02.017Z,99.90
2018-10-03T01:56:30.519Z,99.90
2018-10-03T01:58:58.867Z,99.90
2018-10-03T02:01:27.194Z,99.90
2018-10-03T02:03:56.068Z,99.90
2018-10-03T02:06:24.529Z,99.90
2018-10-03T02:08:53.051Z,99.90
2018-10-03T02:11:21.886Z,99.90
2018-10-03T02:13:50.151Z,99.90
2018-10-03T02:18:38.311Z,99.90
2018-10-03T02:21:06.838Z,99.90
2018-10-03T02:23:35.107Z,99.90
2018-10-03T02:26:03.370Z,99.90
2018-10-03T02:28:32.310Z,99.90
2018-10-03T02:31:01.018Z,99.90
2018-10-03T02:33:29.478Z,99.90
2018-10-03T02:35:58.461Z,99.90
2018-10-03T02:38:26.739Z,99.90
2018-10-03T02:40:55.006Z,99.90
2018-10-03T02:43:23.279Z,99.90
2018-10-03T02:45:51.542Z,99.90
2018-10-03T02:48:19.898Z,99.90
2018-10-03T02:50:48.349Z,99.90
2018-10-03T02:53:16.626Z,99.90
2018-10-03T02:55:45.615Z,99.90
2018-10-03T02:58:13.873Z,99.90
2018-10-03T03:00:42.234Z,99.90
2018-10-03T03:03:10.753Z,99.90
2018-10-03T03:05:39.033Z,99.90
2018-10-03T03:08:08.028Z,99.90
2018-10-03T03:10:36.315Z,99.90
2018-10-03T03:13:05.187Z,99.90
2018-10-03T03:15:34.085Z,99.90
2018-10-03T03:18:03.009Z,99.90
2018-10-03T03:20:31.288Z,99.90
2018-10-03T03:22:59.567Z,99.90
2018-10-03T03:25:28.866Z,99.90
2018-10-03T03:27:57.611Z,99.90
2018-10-03T03:30:26.382Z,99.90
2018-10-03T03:32:54.650Z,99.90
2018-10-03T03:35:22.935Z,99.90
2018-10-03T03:37:51.376Z,99.90
2018-10-03T03:40:19.682Z,99.90
2018-10-03T03:42:48.353Z,99.90
2018-10-03T03:45:16.612Z,99.90
2018-10-03T03:47:44.852Z,99.90
2018-10-03T03:50:13.260Z,99.90
2018-10-03T03:52:41.514Z,99.90
2018-10-03T03:55:09.883Z,99.90
2018-10-03T03:57:38.163Z,99.90
2018-10-03T04:00:06.751Z,99.90
2018-10-03T04:02:36.438Z,99.90
2018-10-03T04:05:04.713Z,99.90
2018-10-03T04:07:33.511Z,99.90
2018-10-03T04:10:02.433Z,99.90
2018-10-03T04:12:31.050Z,99.90
2018-10-03T04:15:00.254Z,99.90
2018-10-03T04:17:30.321Z,99.90
2018-10-03T04:19:58.614Z,99.90
2018-10-03T04:22:27.784Z,99.90
2018-10-03T04:24:56.057Z,99.90
2018-10-03T04:27:24.989Z,99.90
2018-10-03T04:29:54.689Z,99.90
2018-10-03T04:32:22.966Z,99.90
2018-10-03T04:34:51.239Z,99.90
2018-10-03T04:37:19.570Z,99.90
2018-10-03T04:39:47.849Z,99.90
2018-10-03T04:42:16.266Z,99.90
2018-10-03T04:44:44.503Z,99.90
2018-10-03T04:47:12.761Z,99.90
2018-10-03T04:49:41.100Z,99.90
2018-10-03T04:52:09.370Z,99.90
2018-10-03T04:54:37.822Z,99.90
2018-10-03T04:57:06.232Z,99.90
2018-10-03T04:59:34.530Z,99.90
2018-10-03T05:02:03.350Z,99.90
2018-10-03T05:04:31.610Z,99.90
2018-10-03T05:07:00.369Z,99.90
2018-10-03T05:09:29.013Z,99.90
2018-10-03T05:11:58.299Z,99.90
2018-10-03T05:14:26.725Z,99.90
2018-10-03T05:16:55.566Z,99.90
2018-10-03T05:19:24.643Z,99.90
2018-10-03T05:21:52.894Z,99.90
2018-10-03T05:24:21.196Z,99.90
2018-10-03T05:26:49.590Z,99.90
2018-10-03T05:29:18.856Z,99.90
2018-10-03T05:31:47.094Z,99.90
2018-10-03T05:34:15.367Z,99.90
2018-10-03T05:36:43.642Z,99.90
2018-10-03T05:39:13.073Z,99.90
2018-10-03T05:41:41.913Z,99.90
2018-10-03T05:44:10.661Z,99.90
2018-10-03T05:46:39.246Z,99.90
2018-10-03T05:49:07.518Z,99.90
2018-10-03T05:51:35.835Z,99.90
2018-10-03T05:54:04.210Z,99.90
2018-10-03T05:56:32.463Z,99.90
2018-10-03T05:59:00.762Z,99.90
2018-10-03T06:01:29.549Z,99.90
2018-10-03T06:03:58.412Z,99.90
2018-10-03T06:06:26.986Z,99.90
2018-10-03T06:08:56.001Z,99.90
2018-10-03T06:11:24.756Z,99.90
2018-10-03T06:13:53.010Z,99.90
2018-10-03T06:16:21.882Z,99.90
2018-10-03T06:18:50.876Z,99.90
2018-10-03T06:21:19.074Z,99.90
2018-10-03T06:23:47.425Z,99.90
2018-10-03T06:26:16.014Z,99.90
2018-10-03T06:28:45.576Z,99.90
2018-10-03T06:31:13.877Z,99.90
2018-10-03T06:33:42.166Z,99.90
2018-10-03T06:36:10.425Z,99.90
2018-10-03T06:38:38.673Z,99.90
2018-10-03T06:41:07.047Z,99.90
2018-10-03T06:43:35.333Z,99.90
2018-10-03T06:46:03.645Z,99.90
2018-10-03T06:48:31.946Z,99.90
2018-10-03T06:51:00.475Z,99.90
2018-10-03T06:53:29.058Z,99.90
2018-10-03T06:55:57.829Z,99.90
2018-10-03T06:58:26.667Z,99.90
2018-10-03T07:00:54.941Z,99.90
2018-10-03T07:03:23.734Z,99.90
2018-10-03T07:05:52.057Z,99.90
2018-10-03T07:08:20.637Z,99.90
2018-10-03T07:10:48.917Z,99.90
2018-10-03T07:13:17.851Z,99.90
2018-10-03T07:15:46.631Z,99.90
2018-10-03T07:18:15.635Z,99.90
2018-10-03T07:20:44.000Z,99.90
2018-10-03T07:23:12.283Z,99.90
2018-10-03T07:25:40.583Z,99.90
2018-10-03T07:28:08.878Z,99.90
2018-10-03T07:30:37.647Z,99.90
2018-10-03T07:33:05.977Z,99.90
2018-10-03T07:35:34.387Z,99.90
2018-10-03T07:38:02.834Z,99.90
2018-10-03T07:40:31.107Z,99.90
2018-10-03T07:42:59.886Z,99.90
2018-10-03T07:45:28.162Z,99.90
2018-10-03T07:47:56.501Z,99.90
2018-10-03T07:50:24.763Z,99.90
2018-10-03T07:52:53.941Z,99.90
2018-10-03T07:55:22.481Z,99.90
2018-10-03T07:57:50.723Z,99.90
2018-10-03T08:00:26.300Z,99.90
2018-10-03T08:02:55.179Z,99.90
2018-10-03T08:05:23.477Z,99.90
2018-10-03T08:07:52.125Z,99.90
2018-10-03T08:10:20.724Z,99.90
2018-10-03T08:12:49.584Z,99.90
2018-10-03T08:15:18.371Z,99.90
2018-10-03T08:17:47.008Z,99.90
2018-10-03T08:20:15.794Z,99.90
2018-10-03T08:22:44.092Z,99.90
2018-10-03T08:25:12.385Z,99.90
2018-10-03T08:27:40.662Z,99.90
2018-10-03T08:30:09.502Z,99.90
2018-10-03T08:32:37.828Z,99.90
2018-10-03T08:35:06.055Z,99.90
2018-10-03T08:37:34.912Z,99.90
2018-10-03T08:40:03.169Z,99.90
2018-10-03T08:42:31.483Z,99.90
2018-10-03T08:44:59.769Z,99.90
2018-10-03T08:47:28.014Z,99.90
2018-10-03T08:49:56.681Z,99.90
2018-10-03T08:52:25.058Z,99.90
2018-10-03T08:54:53.315Z,99.90
2018-10-03T08:57:21.765Z,99.90
2018-10-03T08:59:50.362Z,99.90
2018-10-03T09:02:19.350Z,99.90
2018-10-03T09:04:47.633Z,99.90
2018-10-03T09:07:16.633Z,99.90
2018-10-03T09:09:44.916Z,99.90
2018-10-03T09:12:13.822Z,99.90
2018-10-03T09:14:42.069Z,99.90
2018-10-03T09:17:10.630Z,99.90
2018-10-03T09:19:39.330Z,99.90
2018-10-03T09:22:07.605Z,99.90
2018-10-03T09:24:35.985Z,99.90
2018-10-03T09:27:04.810Z,99.90
2018-10-03T09:29:33.902Z,99.90
2018-10-03T09:32:02.338Z,99.90
2018-10-03T09:34:30.569Z,99.90
2018-10-03T09:36:59.250Z,99.90
2018-10-03T09:39:28.021Z,99.90
2018-10-03T09:41:56.305Z,99.90
2018-10-03T09:44:24.616Z,99.90
2018-10-03T09:46:53.033Z,99.90
2018-10-03T09:49:21.313Z,99.90
2018-10-03T09:51:49.897Z,99.90
2018-10-03T09:54:18.200Z,99.90
2018-10-03T09:56:46.498Z,99.90
2018-10-03T09:59:14.826Z,99.90
2018-10-03T10:01:43.694Z,99.90
2018-10-03T10:04:11.958Z,99.90
2018-10-03T10:06:41.145Z,99.90
2018-10-03T10:09:11.026Z,99.90
2018-10-03T10:11:40.187Z,99.90
2018-10-03T10:14:08.294Z,99.90
2018-10-03T10:16:36.858Z,99.90
2018-10-03T10:19:05.989Z,99.90
2018-10-03T10:21:34.873Z,99.90
2018-10-03T10:24:03.137Z,99.90
2018-10-03T10:26:31.414Z,99.90
2018-10-03T10:29:00.372Z,99.90
2018-10-03T10:31:29.422Z,99.90
2018-10-03T10:33:57.779Z,99.90
2018-10-03T10:36:26.056Z,99.90
2018-10-03T10:38:54.482Z,99.90
2018-10-03T10:41:22.841Z,99.90
2018-10-03T10:43:51.187Z,99.90
2018-10-03T10:46:19.513Z,99.90
2018-10-03T10:48:47.793Z,99.90
2018-10-03T10:51:16.088Z,99.90
2018-10-03T10:53:44.373Z,99.90
2018-10-03T10:56:12.755Z,99.70
2018-10-03T10:58:41.115Z,99.70
2018-10-03T11:01:09.837Z,99.20
2018-10-03T11:03:38.468Z,98.80
2018-10-03T11:06:06.721Z,98.50
2018-10-03T11:08:35.691Z,97.10
2018-10-03T11:11:04.733Z,97.10
2018-10-03T11:13:32.986Z,97.00
2018-10-03T11:16:01.654Z,96.50
2018-10-03T11:18:30.394Z,96.70
2018-10-03T11:20:58.864Z,96.80
2018-10-03T11:23:27.166Z,97.30
2018-10-03T11:25:55.475Z,97.20
2018-10-03T11:28:24.203Z,97.70
2018-10-03T11:30:54.938Z,97.70
2018-10-03T11:33:24.057Z,98.30
2018-10-03T11:35:52.335Z,98.50
2018-10-03T11:38:20.844Z,98.60
2018-10-03T11:40:49.074Z,99.00
2018-10-03T11:43:17.745Z,98.20
2018-10-03T11:45:46.606Z,98.10
2018-10-03T11:48:14.873Z,97.30
2018-10-03T11:50:43.307Z,97.10
2018-10-03T11:53:11.518Z,97.00
2018-10-03T11:55:40.119Z,95.60
2018-10-03T11:58:08.378Z,95.90
2018-10-03T12:00:36.645Z,95.30
2018-10-03T12:03:05.800Z,95.70
2018-10-03T12:05:34.049Z,95.50
2018-10-03T12:10:41.371Z,96.30
2018-10-03T12:13:09.669Z,96.30
2018-10-03T12:15:38.492Z,95.50
2018-10-03T12:18:06.774Z,95.00
2018-10-03T12:20:35.059Z,95.40
2018-10-03T12:23:03.498Z,95.00
2018-10-03T12:25:32.283Z,94.00
2018-10-03T12:28:00.563Z,92.60
2018-10-03T12:30:29.382Z,92.80
2018-10-03T12:32:57.654Z,92.50
2018-10-03T12:35:32.385Z,92.80
2018-10-03T12:38:00.890Z,92.70
2018-10-03T12:40:29.347Z,93.90
2018-10-03T12:42:57.818Z,92.40
2018-10-03T12:45:26.627Z,92.40
2018-10-03T12:47:55.205Z,91.30
2018-10-03T12:50:23.474Z,91.20
2018-10-03T12:52:51.897Z,90.80
2018-10-03T12:55:20.750Z,90.80
2018-10-03T12:57:49.023Z,90.90
2018-10-03T13:00:17.290Z,90.50
2018-10-03T13:02:46.430Z,90.80
2018-10-03T13:05:15.073Z,91.70
2018-10-03T13:07:44.173Z,93.90
2018-10-03T13:10:13.258Z,95.50
2018-10-03T13:12:41.922Z,96.70
2018-10-03T13:15:11.001Z,97.60
2018-10-03T13:17:39.996Z,98.00
2018-10-03T13:20:09.281Z,99.00
2018-10-03T13:22:38.194Z,98.40
2018-10-03T13:25:07.702Z,97.60
2018-10-03T13:27:36.484Z,97.20
2018-10-03T13:30:05.514Z,97.80
2018-10-03T13:32:33.791Z,97.90
2018-10-03T13:35:02.061Z,98.40
2018-10-03T13:37:30.377Z,98.70
2018-10-03T13:39:58.662Z,98.10
2018-10-03T13:42:27.598Z,97.30
2018-10-03T13:44:56.000Z,97.00
2018-10-03T13:49:49.107Z,96.70
2018-10-03T13:52:17.391Z,96.20
2018-10-03T13:54:46.600Z,95.70
2018-10-03T13:57:14.857Z,95.70
2018-10-03T13:59:43.226Z,95.20
2018-10-03T14:02:12.165Z,95.50
2018-10-03T14:04:40.418Z,95.40
2018-10-03T14:07:09.642Z,95.90
2018-10-03T14:09:37.893Z,95.60
2018-10-03T14:12:06.165Z,95.10
2018-10-03T14:14:34.372Z,95.60
2018-10-03T14:17:03.077Z,95.90
2018-10-03T14:19:31.335Z,95.40
2018-10-03T14:21:59.594Z,96.20
2018-10-03T14:24:27.947Z,96.30
2018-10-03T14:26:56.235Z,96.20
2018-10-03T14:29:24.733Z,96.80
2018-10-03T14:31:53.183Z,96.80
2018-10-03T14:34:21.494Z,96.50
2018-10-03T14:36:49.798Z,96.90
2018-10-03T14:39:18.088Z,97.30
2018-10-03T14:41:46.478Z,97.30
2018-10-03T14:44:15.132Z,97.30
2018-10-03T14:46:43.456Z,96.80
2018-10-03T14:49:12.041Z,96.80
2018-10-03T14:51:40.797Z,97.30
2018-10-03T14:54:09.133Z,97.60
2018-10-03T14:56:37.417Z,97.80
2018-10-03T14:59:05.761Z,97.50
2018-10-03T15:01:34.889Z,97.50
2018-10-03T15:04:03.578Z,97.30
2018-10-03T15:06:32.121Z,97.20
2018-10-03T15:09:00.698Z,97.50
2018-10-03T15:11:29.022Z,97.70
2018-10-03T15:13:57.306Z,96.70
2018-10-03T15:16:26.229Z,95.90
2018-10-03T15:18:54.526Z,96.10
2018-10-03T15:21:22.780Z,95.80
2018-10-03T15:23:51.208Z,95.30
2018-10-03T15:26:19.498Z,94.80
2018-10-03T15:28:48.465Z,94.80
2018-10-03T15:31:16.786Z,94.90
2018-10-03T15:33:45.071Z,94.30
2018-10-03T15:36:13.782Z,93.80
2018-10-03T15:38:42.058Z,93.80
2018-10-03T15:41:10.849Z,93.60
2018-10-03T15:43:39.179Z,93.90
2018-10-03T15:46:07.747Z,93.90
2018-10-03T15:48:36.555Z,93.90
2018-10-03T15:51:05.317Z,93.90
2018-10-03T15:53:33.594Z,93.90
2018-10-03T15:56:02.174Z,94.30
2018-10-03T15:58:30.939Z,94.70
2018-10-03T16:00:59.412Z,95.00
2018-10-03T16:03:28.030Z,95.10
2018-10-03T16:05:56.408Z,95.30
2018-10-03T16:08:25.055Z,95.50
2018-10-03T16:10:53.369Z,95.30
2018-10-03T16:13:21.637Z,95.80
2018-10-03T16:15:50.394Z,95.90
2018-10-03T16:18:18.658Z,96.30
2018-10-03T16:20:46.918Z,96.30
2018-10-03T16:23:15.202Z,97.10
2018-10-03T16:25:43.498Z,97.00
2018-10-03T16:28:12.286Z,97.60
2018-10-03T16:30:41.159Z,97.50
2018-10-03T16:33:09.441Z,97.70
2018-10-03T16:35:37.774Z,97.50
2018-10-03T16:38:06.184Z,98.00
2018-10-03T16:40:34.502Z,98.00
2018-10-03T16:43:02.874Z,98.00
2018-10-03T16:45:31.389Z,97.90
2018-10-03T16:47:59.665Z,98.00
2018-10-03T16:50:28.497Z,97.90
2018-10-03T16:52:56.818Z,98.20
2018-10-03T16:55:25.098Z,98.20
2018-10-03T16:57:53.981Z,98.30
2018-10-03T17:00:23.069Z,98.50
2018-10-03T17:02:51.997Z,98.90
2018-10-03T17:05:20.520Z,99.30
2018-10-03T17:07:49.288Z,99.60
2018-10-03T17:10:17.586Z,99.40
2018-10-03T17:12:45.891Z,99.70
2018-10-03T17:15:14.883Z,99.60
2018-10-03T17:17:43.108Z,99.90
2018-10-03T17:20:11.420Z,99.90
2018-10-03T17:22:40.223Z,99.80
2018-10-03T17:25:09.120Z,99.90
2018-10-03T17:27:37.438Z,99.90
2018-10-03T17:30:06.226Z,99.90
2018-10-03T17:32:34.485Z,99.90
2018-10-03T17:35:02.750Z,99.90
2018-10-03T17:37:31.190Z,99.90
2018-10-03T17:39:59.722Z,99.90
2018-10-03T17:42:28.392Z,99.90
2018-10-03T17:44:56.980Z,99.90
2018-10-03T17:47:25.751Z,99.90
2018-10-03T17:49:54.363Z,99.90
2018-10-03T17:52:23.672Z,99.90
2018-10-03T17:54:52.357Z,99.90
2018-10-03T17:57:20.735Z,99.90
2018-10-03T17:59:49.538Z,99.90
2018-10-03T18:02:18.210Z,99.90
2018-10-03T18:04:46.858Z,99.90
2018-10-03T18:07:15.541Z,99.90
2018-10-03T18:09:43.879Z,99.90
2018-10-03T18:12:12.685Z,99.90
2018-10-03T18:14:41.111Z,99.90
2018-10-03T18:17:09.758Z,99.90
2018-10-03T18:19:38.064Z,99.90
2018-10-03T18:22:06.978Z,99.90
2018-10-03T18:24:35.532Z,99.90
2018-10-03T18:27:04.590Z,99.90
2018-10-03T18:29:33.938Z,99.90
2018-10-03T18:32:02.352Z,99.90
2018-10-03T18:34:30.940Z,99.90
2018-10-03T18:36:59.967Z,99.90
2018-10-03T18:39:28.735Z,99.90
2018-10-03T18:41:57.698Z,99.90
2018-10-03T18:44:26.053Z,99.90
2018-10-03T18:46:54.354Z,99.90
2018-10-03T18:49:23.032Z,99.90
2018-10-03T18:51:51.414Z,99.90
2018-10-03T18:54:19.658Z,99.90
2018-10-03T18:56:48.737Z,99.90
2018-10-03T18:59:17.667Z,99.90
2018-10-03T19:01:46.409Z,99.90
2018-10-03T19:04:15.170Z,99.90
2018-10-03T19:06:43.788Z,99.90
2018-10-03T19:09:12.682Z,99.90
2018-10-03T19:11:40.962Z,99.90
2018-10-03T19:14:09.204Z,99.90
2018-10-03T19:16:37.823Z,99.90
2018-10-03T19:19:06.094Z,99.90
2018-10-03T19:21:34.375Z,99.90
2018-10-03T19:24:02.657Z,99.90
2018-10-03T19:26:30.946Z,99.90
2018-10-03T19:28:59.709Z,99.90
2018-10-03T19:31:28.259Z,99.90
2018-10-03T19:33:57.072Z,99.90
2018-10-03T19:36:25.393Z,99.90
2018-10-03T19:38:53.674Z,99.90
2018-10-03T19:41:21.974Z,99.90
2018-10-03T19:43:50.251Z,99.90
2018-10-03T19:46:18.593Z,99.90
2018-10-03T19:48:46.894Z,99.90
2018-10-03T19:51:15.662Z,99.90
2018-10-03T19:53:43.940Z,99.90
2018-10-03T19:56:12.529Z,99.90
2018-10-03T19:58:40.780Z,99.90
2018-10-03T20:01:09.490Z,99.90
2018-10-03T20:03:39.575Z,99.90
2018-10-03T20:06:07.901Z,99.90
2018-10-03T20:08:36.544Z,99.90
2018-10-03T20:11:04.818Z,99.90
2018-10-03T20:13:33.130Z,99.90
2018-10-03T20:16:01.958Z,99.90
2018-10-03T20:18:30.254Z,99.90
2018-10-03T20:20:58.529Z,99.90
2018-10-03T20:23:27.015Z,99.90
2018-10-03T20:25:55.747Z,99.90
2018-10-03T20:28:24.081Z,99.90
2018-10-03T20:30:53.334Z,99.90
2018-10-03T20:33:21.701Z,99.90
2018-10-03T20:35:49.981Z,99.90
2018-10-03T20:38:18.454Z,99.90
2018-10-03T20:40:47.104Z,99.90
2018-10-03T20:43:15.430Z,99.90
2018-10-03T20:45:43.727Z,99.90
2018-10-03T20:48:12.054Z,99.90
2018-10-03T20:50:41.014Z,99.90
2018-10-03T20:53:09.291Z,99.90
2018-10-03T20:55:37.941Z,99.90
2018-10-03T20:58:06.281Z,99.90
2018-10-03T21:00:35.142Z,99.90
2018-10-03T21:03:03.886Z,99.90
2018-10-03T21:05:32.255Z,99.90
2018-10-03T21:08:01.220Z,99.90
2018-10-03T21:10:29.511Z,99.90
2018-10-03T21:12:57.804Z,99.90
2018-10-03T21:15:26.850Z,99.90
2018-10-03T21:17:55.518Z,99.90
2018-10-03T21:20:23.798Z,99.90
2018-10-03T21:22:52.737Z,99.90
2018-10-03T21:25:21.022Z,99.90
2018-10-03T21:27:49.402Z,99.90
2018-10-03T21:30:17.965Z,99.90
2018-10-03T21:32:48.180Z,99.90
2018-10-03T21:35:16.458Z,99.90
2018-10-03T21:37:44.762Z,99.90
2018-10-03T21:40:13.070Z,99.90
2018-10-03T21:42:41.349Z,99.90
2018-10-03T21:45:09.760Z,99.90
2018-10-03T21:47:38.071Z,99.90
2018-10-03T21:50:06.575Z,99.90
2018-10-03T21:52:34.839Z,99.90
2018-10-03T21:55:03.259Z,99.90
2018-10-03T21:57:32.213Z,99.90
2018-10-03T22:00:00.854Z,99.90
2018-10-03T22:02:29.559Z,99.90
2018-10-03T22:04:58.075Z,99.90
2018-10-03T22:07:26.638Z,99.90
2018-10-03T22:09:54.918Z,99.90
2018-10-03T22:12:23.493Z,99.90
2018-10-03T22:14:51.793Z,99.90
2018-10-03T22:17:22.937Z,99.90
2018-10-03T22:19:51.910Z,99.90
2018-10-03T22:22:20.413Z,99.90
2018-10-03T22:24:48.995Z,99.90
2018-10-03T22:27:17.474Z,99.90
2018-10-03T22:29:47.047Z,99.90
2018-10-03T22:32:15.332Z,99.90
2018-10-03T22:34:43.618Z,99.90
2018-10-03T22:37:11.957Z,99.90
2018-10-03T22:39:41.110Z,99.90
2018-10-03T22:42:09.562Z,99.90
2018-10-03T22:44:37.854Z,99.90
2018-10-03T22:47:06.618Z,99.90
2018-10-03T22:49:34.926Z,99.90
2018-10-03T22:52:03.373Z,99.90
2018-10-03T22:54:31.907Z,99.90
2018-10-03T22:57:00.803Z,99.90
2018-10-03T22:59:29.050Z,99.90
2018-10-03T23:01:58.045Z,99.90
2018-10-03T23:04:26.490Z,99.90
2018-10-03T23:06:54.730Z,99.90
2018-10-03T23:09:23.329Z,99.90
2018-10-03T23:11:52.181Z,99.90
2018-10-03T23:14:20.477Z,99.90
2018-10-03T23:16:49.134Z,99.90
2018-10-03T23:19:17.418Z,99.90
2018-10-03T23:21:46.379Z,99.90
2018-10-03T23:24:14.642Z,99.90
2018-10-03T23:26:42.892Z,99.90
2018-10-03T23:29:11.720Z,99.90
2018-10-03T23:31:39.968Z,99.90
2018-10-03T23:34:08.253Z,99.90
2018-10-03T23:36:36.669Z,99.90
2018-10-03T23:39:07.686Z,99.90
2018-10-03T23:41:36.011Z,99.90
2018-10-03T23:44:04.313Z,99.90
2018-10-03T23:46:33.109Z,99.90
2018-10-03T23:49:01.913Z,99.90
2018-10-03T23:51:30.449Z,99.90
2018-10-03T23:53:58.718Z,99.90
2018-10-03T23:56:26.973Z,99.90
2018-10-03T23:58:55.253Z,99.90
